createdAt,value
2022-11-20T00:01:25.973Z,-5.63
2022-11-20T00:03:54.112Z,-5.37
2022-11-20T00:06:21.423Z,-5.24
2022-11-20T00:08:48.459Z,-5.38
2022-11-20T00:11:18.256Z,-5.49
2022-11-20T00:13:46.028Z,-5.55
2022-11-20T00:16:14.856Z,-5.51
2022-11-20T00:18:41.265Z,-5.55
2022-11-20T00:21:12.275Z,-5.62
2022-11-20T00:23:38.631Z,-5.64
2022-11-20T00:26:07.701Z,-5.67
2022-11-20T00:28:34.322Z,-5.47
2022-11-20T00:31:17.388Z,-5.45
2022-11-20T00:33:44.703Z,-5.53
2022-11-20T00:36:13.980Z,-5.59
2022-11-20T00:38:40.363Z,-5.61
2022-11-20T00:41:09.644Z,-5.74
2022-11-20T00:43:36.055Z,-5.78
2022-11-20T00:46:05.130Z,-5.81
2022-11-20T00:48:31.510Z,-5.86
2022-11-20T00:50:57.870Z,-5.86
2022-11-20T00:53:24.988Z,-5.89
2022-11-20T00:55:56.032Z,-5.84
2022-11-20T00:58:23.222Z,-5.85
2022-11-20T01:00:50.194Z,-5.79
2022-11-20T01:03:25.574Z,-5.81
2022-11-20T01:05:53.264Z,-5.83
2022-11-20T01:08:19.565Z,-5.87
2022-11-20T01:10:45.869Z,-5.90
2022-11-20T01:13:12.203Z,-5.65
2022-11-20T01:15:38.743Z,-5.72
2022-11-20T01:18:05.245Z,-5.76
2022-11-20T01:20:35.784Z,-5.77
2022-11-20T01:23:03.168Z,-5.79
2022-11-20T01:25:30.121Z,-5.82
2022-11-20T01:27:56.484Z,-5.86
2022-11-20T01:30:22.829Z,-5.85
2022-11-20T01:32:49.144Z,-5.81
2022-11-20T01:35:15.519Z,-5.81
2022-11-20T01:37:41.858Z,-5.72
2022-11-20T01:40:08.872Z,-5.78
2022-11-20T01:42:35.494Z,-5.83
2022-11-20T01:45:02.034Z,-5.85
2022-11-20T01:47:36.889Z,-5.95
2022-11-20T01:50:38.772Z,-5.97
2022-11-20T01:53:11.840Z,-5.94
2022-11-20T01:55:42.655Z,-6.03
2022-11-20T01:58:09.414Z,-6.17
2022-11-20T02:00:35.849Z,-6.17
2022-11-20T02:03:09.937Z,-6.15
2022-11-20T02:06:00.427Z,-6.12
2022-11-20T02:08:26.794Z,-6.00
2022-11-20T02:10:53.175Z,-6.02
2022-11-20T02:13:19.621Z,-6.00
2022-11-20T02:15:47.847Z,-6.03
2022-11-20T02:18:18.227Z,-6.03
2022-11-20T02:20:48.536Z,-5.85
2022-11-20T02:23:17.570Z,-6.01
2022-11-20T02:25:46.733Z,-6.06
2022-11-20T02:28:13.242Z,-5.98
2022-11-20T02:30:39.569Z,-6.10
2022-11-20T02:33:05.895Z,-6.19
2022-11-20T02:35:32.169Z,-6.28
2022-11-20T02:38:03.416Z,-6.21
2022-11-20T02:40:30.406Z,-6.13
2022-11-20T02:42:57.723Z,-6.11
2022-11-20T02:45:25.381Z,-6.07
2022-11-20T02:47:52.367Z,-6.03
2022-11-20T02:50:19.262Z,-6.02
2022-11-20T02:52:45.662Z,-5.95
2022-11-20T02:55:12.657Z,-6.00
2022-11-20T02:57:39.027Z,-6.01
2022-11-20T03:00:06.651Z,-6.03
2022-11-20T03:02:33.783Z,-6.10
2022-11-20T03:05:00.150Z,-5.99
2022-11-20T03:07:26.471Z,-6.11
2022-11-20T03:09:52.829Z,-6.00
2022-11-20T03:12:19.128Z,-6.16
2022-11-20T03:14:50.218Z,-6.29
2022-11-20T03:17:19.130Z,-6.39
2022-11-20T03:19:45.477Z,-6.38
2022-11-20T03:22:11.779Z,-6.43
2022-11-20T03:24:38.140Z,-6.38
2022-11-20T03:27:04.438Z,-6.25
2022-11-20T03:29:30.817Z,-6.32
2022-11-20T03:31:57.126Z,-6.34
2022-11-20T03:34:23.461Z,-6.24
2022-11-20T03:36:49.808Z,-6.13
2022-11-20T03:39:16.128Z,-6.18
2022-11-20T03:41:42.635Z,-6.26
2022-11-20T03:44:11.173Z,-6.31
2022-11-20T03:46:38.058Z,-6.30
2022-11-20T03:49:04.765Z,-6.26
2022-11-20T03:51:33.484Z,-6.31
2022-11-20T03:54:02.363Z,-6.23
2022-11-20T03:56:31.057Z,-6.19
2022-11-20T03:58:57.893Z,-6.23
2022-11-20T04:01:27.148Z,-6.28
2022-11-20T04:03:55.110Z,-6.45
2022-11-20T04:06:29.562Z,-6.49
2022-11-20T04:08:57.644Z,-6.61
2022-11-20T04:11:26.886Z,-6.63
2022-11-20T04:13:56.720Z,-6.70
2022-11-20T04:16:24.779Z,-6.81
2022-11-20T04:18:55.977Z,-6.90
2022-11-20T04:21:22.622Z,-7.04
2022-11-20T04:23:49.577Z,-7.03
2022-11-20T04:26:16.070Z,-6.90
2022-11-20T04:28:42.452Z,-6.96
2022-11-20T04:31:14.543Z,-7.00
2022-11-20T04:33:41.760Z,-7.14
2022-11-20T04:36:12.571Z,-7.22
2022-11-20T04:38:39.894Z,-7.19
2022-11-20T04:41:08.149Z,-7.07
2022-11-20T04:43:35.071Z,-7.08
2022-11-20T04:46:02.066Z,-7.15
2022-11-20T04:48:29.684Z,-7.13
2022-11-20T04:50:56.200Z,-7.23
2022-11-20T04:53:23.597Z,-7.20
2022-11-20T04:55:49.996Z,-7.16
2022-11-20T04:58:17.358Z,-7.13
2022-11-20T05:00:43.702Z,-7.08
2022-11-20T05:03:10.023Z,-6.99
2022-11-20T05:05:36.422Z,-7.02
2022-11-20T05:08:02.863Z,-7.06
2022-11-20T05:10:29.332Z,-7.09
2022-11-20T05:12:55.712Z,-7.14
2022-11-20T05:15:22.238Z,-7.03
2022-11-20T05:17:52.875Z,-7.01
2022-11-20T05:20:19.915Z,-7.02
2022-11-20T05:22:46.669Z,-7.14
2022-11-20T05:25:13.281Z,-7.31
2022-11-20T05:27:39.609Z,-7.37
2022-11-20T05:30:06.630Z,-7.11
2022-11-20T05:32:32.995Z,-7.00
2022-11-20T05:34:59.379Z,-6.91
2022-11-20T05:37:25.690Z,-6.91
2022-11-20T05:39:52.035Z,-6.88
2022-11-20T05:42:18.365Z,-6.95
2022-11-20T05:44:44.699Z,-6.90
2022-11-20T05:47:11.006Z,-6.96
2022-11-20T05:49:37.336Z,-7.02
2022-11-20T05:52:03.823Z,-7.05
2022-11-20T05:54:30.144Z,-7.06
2022-11-20T05:56:56.465Z,-7.09
2022-11-20T05:59:23.000Z,-7.03
2022-11-20T06:01:49.564Z,-7.01
2022-11-20T06:04:15.876Z,-6.99
2022-11-20T06:06:42.210Z,-6.95
2022-11-20T06:09:08.537Z,-6.96
2022-11-20T06:11:34.872Z,-6.95
2022-11-20T06:14:01.209Z,-6.96
2022-11-20T06:16:27.537Z,-6.95
2022-11-20T06:18:53.852Z,-7.00
2022-11-20T06:21:21.841Z,-7.09
2022-11-20T06:23:48.879Z,-7.03
2022-11-20T06:26:21.189Z,-6.88
2022-11-20T06:28:47.897Z,-6.80
2022-11-20T06:31:16.571Z,-6.72
2022-11-20T06:33:44.110Z,-6.64
2022-11-20T06:36:12.861Z,-6.73
2022-11-20T06:38:40.103Z,-6.75
2022-11-20T06:41:07.699Z,-6.78
2022-11-20T06:43:34.042Z,-6.67
2022-11-20T06:46:00.515Z,-6.74
2022-11-20T06:48:28.189Z,-6.83
2022-11-20T06:50:54.522Z,-6.95
2022-11-20T06:53:20.882Z,-7.02
2022-11-20T06:55:48.003Z,-7.00
2022-11-20T06:58:15.318Z,-7.00
2022-11-20T07:00:42.412Z,-6.99
2022-11-20T07:03:11.025Z,-6.91
2022-11-20T07:05:38.146Z,-6.84
2022-11-20T07:08:05.257Z,-6.87
2022-11-20T07:10:32.281Z,-6.80
2022-11-20T07:12:58.592Z,-6.74
2022-11-20T07:15:25.593Z,-6.71
2022-11-20T07:17:52.251Z,-6.58
2022-11-20T07:20:18.776Z,-6.40
2022-11-20T07:22:45.130Z,-6.28
2022-11-20T07:25:11.681Z,-6.23
2022-11-20T07:27:38.039Z,-6.14
2022-11-20T07:30:05.143Z,-6.21
2022-11-20T07:32:31.472Z,-6.26
2022-11-20T07:34:57.828Z,-6.21
2022-11-20T07:37:24.134Z,-5.84
2022-11-20T07:39:50.454Z,-5.66
2022-11-20T07:42:16.858Z,-5.63
2022-11-20T07:44:43.184Z,-5.57
2022-11-20T07:47:09.480Z,-5.47
2022-11-20T07:49:35.797Z,-5.47
2022-11-20T07:52:05.032Z,-5.45
2022-11-20T07:54:31.802Z,-5.36
2022-11-20T07:56:58.125Z,-5.33
2022-11-20T07:59:24.540Z,-5.16
2022-11-20T08:01:50.942Z,-5.04
2022-11-20T08:04:17.271Z,-4.94
2022-11-20T08:06:43.635Z,-4.97
2022-11-20T08:09:09.983Z,-4.89
2022-11-20T08:11:36.294Z,-4.66
2022-11-20T08:14:02.616Z,-4.41
2022-11-20T08:16:29.145Z,-4.10
2022-11-20T08:18:55.932Z,-3.96
2022-11-20T08:21:22.235Z,-3.84
2022-11-20T08:23:48.569Z,-3.64
2022-11-20T08:26:14.888Z,-3.45
2022-11-20T08:28:41.190Z,-3.26
2022-11-20T08:31:07.505Z,-3.07
2022-11-20T08:33:33.837Z,-3.07
2022-11-20T08:36:01.732Z,-2.77
2022-11-20T08:38:28.173Z,-2.86
2022-11-20T08:40:58.626Z,-2.72
2022-11-20T08:43:24.934Z,-2.58
2022-11-20T08:45:51.245Z,-2.29
2022-11-20T08:48:17.556Z,-2.17
2022-11-20T08:50:43.886Z,-2.03
2022-11-20T08:53:10.203Z,-2.00
2022-11-20T08:55:36.724Z,-2.05
2022-11-20T08:58:07.307Z,-2.12
2022-11-20T09:00:34.719Z,-2.13
2022-11-20T09:03:01.690Z,-1.96
2022-11-20T09:05:28.444Z,-2.82
2022-11-20T09:07:58.618Z,-2.54
2022-11-20T09:10:25.352Z,-2.44
2022-11-20T09:12:53.136Z,-2.30
2022-11-20T09:15:20.295Z,-2.24
2022-11-20T09:18:00.631Z,-2.08
2022-11-20T09:20:28.782Z,-2.16
2022-11-20T09:22:55.664Z,-2.07
2022-11-20T09:25:22.200Z,-2.08
2022-11-20T09:27:48.557Z,-2.03
2022-11-20T09:30:16.264Z,-1.92
2022-11-20T09:32:43.628Z,-1.79
2022-11-20T09:35:10.497Z,-1.64
2022-11-20T09:37:36.971Z,-1.64
2022-11-20T09:40:04.023Z,-1.50
2022-11-20T09:42:38.149Z,-1.40
2022-11-20T09:45:55.677Z,-1.38
2022-11-20T09:48:32.161Z,-1.27
2022-11-20T09:51:11.298Z,-1.21
2022-11-20T09:53:55.631Z,-1.18
2022-11-20T09:56:22.911Z,-1.11
2022-11-20T09:58:52.426Z,-1.07
2022-11-20T10:01:32.760Z,-0.86
2022-11-20T10:04:04.222Z,-0.54
2022-11-20T10:06:42.880Z,-0.21
2022-11-20T10:09:12.172Z,0.03
2022-11-20T10:12:07.784Z,0.26
2022-11-20T10:14:39.785Z,0.22
2022-11-20T10:17:43.274Z,0.35
2022-11-20T10:20:36.427Z,0.35
2022-11-20T10:23:30.689Z,0.10
2022-11-20T10:26:04.726Z,0.34
2022-11-20T10:29:09.300Z,0.56
2022-11-20T10:31:41.494Z,0.71
2022-11-20T10:34:21.018Z,0.75
2022-11-20T10:36:56.882Z,0.65
2022-11-20T10:40:01.645Z,0.79
2022-11-20T10:42:46.218Z,0.96
2022-11-20T10:45:24.779Z,1.00
2022-11-20T10:47:53.853Z,1.12
2022-11-20T10:50:22.994Z,0.83
2022-11-20T10:53:34.805Z,0.90
2022-11-20T10:56:20.322Z,1.23
2022-11-20T10:59:01.258Z,1.39
2022-11-20T11:01:27.802Z,1.41
2022-11-20T11:03:56.265Z,1.27
2022-11-20T11:06:46.328Z,1.30
2022-11-20T11:09:33.512Z,1.46
2022-11-20T11:12:05.758Z,1.49
2022-11-20T11:14:46.222Z,1.79
2022-11-20T11:17:47.718Z,1.80
2022-11-20T11:20:25.429Z,2.04
2022-11-20T11:22:53.151Z,2.10
2022-11-20T11:25:28.438Z,2.12
2022-11-20T11:27:56.885Z,2.21
2022-11-20T11:30:25.354Z,2.38
2022-11-20T11:33:02.699Z,2.28
2022-11-20T11:35:29.342Z,2.46
2022-11-20T11:38:05.533Z,2.48
2022-11-20T11:40:37.216Z,2.57
2022-11-20T11:43:08.581Z,2.56
2022-11-20T11:45:34.918Z,2.55
2022-11-20T11:48:04.563Z,2.44
2022-11-20T11:50:30.946Z,2.26
2022-11-20T11:53:09.847Z,2.46
2022-11-20T11:55:44.814Z,2.26
2022-11-20T11:58:19.790Z,2.15
2022-11-20T12:00:58.097Z,2.15
2022-11-20T12:03:36.748Z,2.26
2022-11-20T12:06:09.952Z,2.34
2022-11-20T12:08:54.112Z,2.26
2022-11-20T12:11:47.735Z,2.07
2022-11-20T12:14:34.996Z,1.90
2022-11-20T12:17:02.757Z,1.77
2022-11-20T12:19:35.354Z,1.68
2022-11-20T12:22:26.386Z,1.74
2022-11-20T12:25:02.637Z,2.00
2022-11-20T12:27:53.801Z,1.97
2022-11-20T12:30:22.064Z,2.03
2022-11-20T12:33:19.222Z,1.93
2022-11-20T12:36:17.241Z,2.01
2022-11-20T12:38:46.523Z,1.92
2022-11-20T12:41:28.166Z,2.01
2022-11-20T12:44:24.073Z,1.97
2022-11-20T12:47:09.522Z,1.91
2022-11-20T12:49:49.268Z,1.84
2022-11-20T12:52:27.552Z,1.75
2022-11-20T12:55:13.341Z,1.73
2022-11-20T12:57:47.309Z,1.69
2022-11-20T13:00:20.563Z,1.65
2022-11-20T13:03:13.512Z,1.60
2022-11-20T13:05:49.153Z,1.67
2022-11-20T13:08:37.027Z,1.91
2022-11-20T13:11:19.985Z,2.19
2022-11-20T13:14:12.525Z,2.30
2022-11-20T13:16:51.493Z,2.27
2022-11-20T13:19:19.044Z,2.18
2022-11-20T13:21:50.356Z,2.13
2022-11-20T13:24:20.020Z,1.86
2022-11-20T13:26:47.735Z,1.93
2022-11-20T13:29:19.492Z,1.68
2022-11-20T13:31:49.332Z,1.60
2022-11-20T13:34:25.853Z,1.49
2022-11-20T13:36:57.925Z,1.33
2022-11-20T13:39:29.767Z,1.30
2022-11-20T13:41:58.930Z,1.28
2022-11-20T13:44:37.598Z,1.28
2022-11-20T13:47:04.588Z,1.53
2022-11-20T13:49:35.177Z,1.65
2022-11-20T13:52:15.074Z,1.71
2022-11-20T13:54:50.378Z,1.71
2022-11-20T13:57:19.664Z,1.72
2022-11-20T13:59:55.097Z,1.69
2022-11-20T14:02:23.986Z,1.66
2022-11-20T14:04:53.635Z,1.53
2022-11-20T14:07:24.697Z,1.43
2022-11-20T14:09:56.840Z,1.24
2022-11-20T14:12:29.031Z,1.19
2022-11-20T14:14:55.907Z,1.05
2022-11-20T14:17:23.964Z,1.08
2022-11-20T14:19:52.573Z,1.21
2022-11-20T14:22:24.659Z,1.18
2022-11-20T14:25:12.515Z,1.11
2022-11-20T14:27:41.415Z,1.16
2022-11-20T14:30:19.974Z,1.08
2022-11-20T14:32:47.777Z,1.07
2022-11-20T14:35:41.420Z,1.07
2022-11-20T14:38:12.816Z,1.17
2022-11-20T14:40:39.177Z,1.19
2022-11-20T14:43:23.520Z,1.26
2022-11-20T14:46:07.950Z,1.27
2022-11-20T14:48:44.130Z,1.11
2022-11-20T14:51:12.328Z,1.18
2022-11-20T14:53:38.743Z,1.02
2022-11-20T14:56:05.261Z,0.97
2022-11-20T14:58:34.312Z,0.90
2022-11-20T15:01:08.272Z,0.76
2022-11-20T15:03:39.591Z,0.58
2022-11-20T15:06:08.088Z,0.59
2022-11-20T15:08:35.316Z,0.50
2022-11-20T15:11:02.410Z,0.55
2022-11-20T15:13:38.568Z,0.51
2022-11-20T15:16:17.358Z,0.49
2022-11-20T15:18:44.038Z,0.55
2022-11-20T15:21:16.098Z,0.37
2022-11-20T15:23:43.529Z,0.43
2022-11-20T15:26:15.390Z,0.62
2022-11-20T15:28:46.636Z,0.67
2022-11-20T15:31:14.725Z,0.51
2022-11-20T15:33:41.044Z,0.37
2022-11-20T15:36:07.649Z,0.33
2022-11-20T15:38:33.984Z,0.35
2022-11-20T15:41:00.330Z,0.33
2022-11-20T15:43:26.648Z,0.28
2022-11-20T15:46:00.257Z,0.48
2022-11-20T15:48:36.803Z,0.48
2022-11-20T15:51:11.949Z,0.50
2022-11-20T15:53:39.137Z,0.46
2022-11-20T15:56:05.628Z,0.32
2022-11-20T15:58:31.934Z,0.08
2022-11-20T16:00:58.365Z,0.04
2022-11-20T16:03:25.086Z,0.01
2022-11-20T16:05:51.387Z,0.01
2022-11-20T16:08:17.726Z,-0.08
2022-11-20T16:10:44.050Z,-0.08
2022-11-20T16:13:16.903Z,0.02
2022-11-20T16:15:46.227Z,0.11
2022-11-20T16:18:15.898Z,0.18
2022-11-20T16:20:42.450Z,0.14
2022-11-20T16:23:08.791Z,0.12
2022-11-20T16:25:35.185Z,0.18
2022-11-20T16:28:01.478Z,0.30
2022-11-20T16:30:27.789Z,0.40
2022-11-20T16:32:54.523Z,0.45
2022-11-20T16:35:20.862Z,0.59
2022-11-20T16:37:47.147Z,0.55
2022-11-20T16:40:13.451Z,0.58
2022-11-20T16:42:39.742Z,0.59
2022-11-20T16:45:06.570Z,0.60
2022-11-20T16:47:36.048Z,0.50
2022-11-20T16:50:04.033Z,0.52
2022-11-20T16:52:31.131Z,0.59
2022-11-20T16:54:58.171Z,0.59
2022-11-20T16:57:25.071Z,0.53
2022-11-20T16:59:51.376Z,0.58
2022-11-20T17:02:17.709Z,0.62
2022-11-20T17:04:44.017Z,0.74
2022-11-20T17:07:10.423Z,0.67
2022-11-20T17:09:36.790Z,0.57
2022-11-20T17:12:03.265Z,0.58
2022-11-20T17:14:29.631Z,0.57
2022-11-20T17:16:55.930Z,0.55
2022-11-20T17:19:22.241Z,0.65
2022-11-20T17:21:48.563Z,0.56
2022-11-20T17:24:15.534Z,0.56
2022-11-20T17:26:43.516Z,0.57
2022-11-20T17:29:16.168Z,0.63
2022-11-20T17:31:43.221Z,0.62
2022-11-20T17:34:13.597Z,0.55
2022-11-20T17:36:44.889Z,0.59
2022-11-20T17:39:16.044Z,0.59
2022-11-20T17:41:42.373Z,0.58
2022-11-20T17:44:12.872Z,0.57
2022-11-20T17:46:39.804Z,0.51
2022-11-20T17:49:06.307Z,0.48
2022-11-20T17:51:33.605Z,0.50
2022-11-20T17:54:02.222Z,0.59
2022-11-20T17:56:32.983Z,0.60
2022-11-20T17:59:00.784Z,0.55
2022-11-20T18:01:27.137Z,0.52
2022-11-20T18:03:56.212Z,0.43
2022-11-20T18:06:25.092Z,0.31
2022-11-20T18:08:52.079Z,0.37
2022-11-20T18:11:18.319Z,0.37
2022-11-20T18:13:47.963Z,0.29
2022-11-20T18:16:14.395Z,0.37
2022-11-20T18:18:40.703Z,0.36
2022-11-20T18:21:07.017Z,0.44
2022-11-20T18:23:33.762Z,0.37
2022-11-20T18:26:00.581Z,0.35
2022-11-20T18:28:26.880Z,0.29
2022-11-20T18:30:53.393Z,0.20
2022-11-20T18:33:23.038Z,0.15
2022-11-20T18:35:51.829Z,0.25
2022-11-20T18:38:18.133Z,0.34
2022-11-20T18:40:44.447Z,0.35
2022-11-20T18:43:11.152Z,0.37
2022-11-20T18:45:37.494Z,0.25
2022-11-20T18:48:03.914Z,0.35
2022-11-20T18:50:30.256Z,0.29
2022-11-20T18:52:56.549Z,0.35
2022-11-20T18:55:22.873Z,0.42
2022-11-20T18:57:49.182Z,0.43
2022-11-20T19:00:15.855Z,0.28
2022-11-20T19:02:43.411Z,0.22
2022-11-20T19:05:14.456Z,0.21
2022-11-20T19:07:41.146Z,0.31
2022-11-20T19:10:08.243Z,0.22
2022-11-20T19:12:34.577Z,0.24
2022-11-20T19:15:00.909Z,0.30
2022-11-20T19:17:27.238Z,0.04
2022-11-20T19:19:53.590Z,-0.07
2022-11-20T19:22:20.008Z,-0.04
2022-11-20T19:24:46.337Z,-0.04
2022-11-20T19:27:12.659Z,-0.13
2022-11-20T19:29:39.030Z,-0.18
2022-11-20T19:32:05.510Z,-0.17
2022-11-20T19:34:31.877Z,-0.28
2022-11-20T19:36:58.370Z,-0.22
2022-11-20T19:39:24.923Z,-0.24
2022-11-20T19:41:51.436Z,-0.16
2022-11-20T19:44:17.802Z,-0.27
2022-11-20T19:46:44.366Z,-0.24
2022-11-20T19:49:13.179Z,-0.14
2022-11-20T19:51:44.596Z,-0.21
2022-11-20T19:54:10.945Z,-0.32
2022-11-20T19:56:37.276Z,-0.33
2022-11-20T19:59:03.603Z,-0.31
2022-11-20T20:01:31.660Z,-0.32
2022-11-20T20:03:59.516Z,-0.26
2022-11-20T20:06:26.370Z,-0.21
2022-11-20T20:09:02.490Z,-0.36
2022-11-20T20:11:31.184Z,-0.33
2022-11-20T20:13:57.531Z,-0.29
2022-11-20T20:16:25.660Z,-0.17
2022-11-20T20:19:00.015Z,-0.07
2022-11-20T20:21:26.366Z,-0.17
2022-11-20T20:23:54.362Z,-0.17
2022-11-20T20:26:22.658Z,-0.09
2022-11-20T20:28:49.179Z,-0.05
2022-11-20T20:31:18.902Z,-0.08
2022-11-20T20:33:45.710Z,-0.11
2022-11-20T20:36:13.989Z,0.00
2022-11-20T20:38:40.603Z,-0.34
2022-11-20T20:41:06.933Z,-0.54
2022-11-20T20:43:33.379Z,-0.57
2022-11-20T20:45:59.716Z,-0.41
2022-11-20T20:48:26.049Z,-0.42
2022-11-20T20:50:57.719Z,-0.48
2022-11-20T20:53:25.029Z,-0.21
2022-11-20T20:55:58.787Z,-0.32
2022-11-20T20:58:25.755Z,-0.21
2022-11-20T21:00:52.296Z,-0.09
2022-11-20T21:03:19.766Z,0.04
2022-11-20T21:05:46.813Z,0.08
2022-11-20T21:08:13.252Z,0.33
2022-11-20T21:10:39.595Z,0.23
2022-11-20T21:13:05.938Z,0.19
2022-11-20T21:15:32.237Z,0.04
2022-11-20T21:17:58.545Z,0.13
2022-11-20T21:20:24.867Z,-0.03
2022-11-20T21:22:51.184Z,0.28
2022-11-20T21:25:17.540Z,0.16
2022-11-20T21:27:43.869Z,0.18
2022-11-20T21:30:10.737Z,-0.11
2022-11-20T21:32:37.073Z,0.17
2022-11-20T21:35:03.456Z,0.04
2022-11-20T21:37:29.764Z,-0.03
2022-11-20T21:39:56.105Z,-0.28
2022-11-20T21:42:22.425Z,-0.21
2022-11-20T21:44:48.799Z,-0.19
2022-11-20T21:47:15.195Z,-0.03
2022-11-20T21:49:41.523Z,-0.39
2022-11-20T21:52:07.868Z,-0.31
2022-11-20T21:54:34.160Z,-0.25
2022-11-20T21:57:00.467Z,-0.44
2022-11-20T21:59:26.812Z,-0.40
2022-11-20T22:01:53.182Z,-0.59
2022-11-20T22:04:19.631Z,-0.67
2022-11-20T22:06:45.976Z,-0.68
2022-11-20T22:09:13.347Z,-0.25
2022-11-20T22:11:39.663Z,-0.19
2022-11-20T22:14:06.076Z,-0.37
2022-11-20T22:16:36.795Z,-0.52
2022-11-20T22:19:04.780Z,-0.62
2022-11-20T22:21:32.093Z,-0.47
2022-11-20T22:23:58.815Z,-0.05
2022-11-20T22:26:40.251Z,0.02
2022-11-20T22:29:07.545Z,-0.03
2022-11-20T22:31:34.063Z,-0.10
2022-11-20T22:34:02.016Z,-0.19
2022-11-20T22:36:30.357Z,-0.38
2022-11-20T22:38:57.514Z,-0.51
2022-11-20T22:41:28.405Z,-0.28
2022-11-20T22:43:56.467Z,-0.62
2022-11-20T22:46:23.937Z,-0.73
2022-11-20T22:48:53.476Z,-0.70
2022-11-20T22:51:22.874Z,-0.22
2022-11-20T22:53:49.545Z,-0.09
2022-11-20T22:56:16.680Z,-0.39
2022-11-20T22:58:45.134Z,-0.38
2022-11-20T23:01:15.322Z,-0.66
2022-11-20T23:03:44.576Z,-0.78
2022-11-20T23:06:12.062Z,-0.60
2022-11-20T23:08:39.654Z,-0.46
2022-11-20T23:11:16.884Z,-0.81
2022-11-20T23:13:44.551Z,-0.64
2022-11-20T23:16:13.869Z,-0.66
2022-11-20T23:18:41.370Z,-0.71
2022-11-20T23:21:16.202Z,-0.84
2022-11-20T23:23:42.990Z,-0.42
2022-11-20T23:26:13.735Z,-0.29
2022-11-20T23:28:40.885Z,-0.32
2022-11-20T23:31:08.753Z,-0.51
2022-11-20T23:33:36.035Z,-0.64
2022-11-20T23:36:02.775Z,-0.66
2022-11-20T23:38:29.145Z,-0.59
2022-11-20T23:40:55.446Z,-0.75
2022-11-20T23:43:22.484Z,-0.69
2022-11-20T23:45:53.741Z,-0.62
2022-11-20T23:48:21.622Z,-0.94
2022-11-20T23:50:48.807Z,-0.88
2022-11-20T23:53:15.986Z,-0.76
2022-11-20T23:55:50.744Z,-0.76
2022-11-20T23:58:17.206Z,-0.91
